^^
Grace C. Lehan Memorial Weather Station Historical Data
Daily Summary for February 3, 2021 Units:  English    Metric   Both
Daily Weekly Monthly Yearly
  High: Low: Average:
Temperature: 53.4 °F 35.2 °F 44.1 °F
Dew Point: 37.1 °F 30.3 °F 32.9 °F
Humidity: 89% 42.8% 66%
Wind Speed: 6mph 0mph 0.9mph
Wind Gust: 16mph - -
Wind- - WNW
Pressure: 30.29 in 30.14 in -
Precipitation: 0.00 in    
 
 
Tabular Data for February 3, 2021
Time Temperature Dew Point Pressure Wind Wind Speed Wind Gust Humidity Rainfall Rate (Hourly) solar
00:00 45.4 °F 34.7 °F 30.14 in Calm     66% 0.00 in 0 W/m2
00:09 45.1 °F 34.7 °F 30.14 in Calm     66.7% 0.00 in 0 W/m2
00:14 45.1 °F 35.2 °F 30.14 in Calm     68% 0.00 in 0 W/m2
00:19 45 °F 35.1 °F 30.14 in Calm     68% 0.00 in 0 W/m2
00:24 44.9 °F 35.2 °F 30.14 in Calm     68.5% 0.00 in 0 W/m2
00:29 44.8 °F 35.1 °F 30.14 in Calm     68.4% 0.00 in 0 W/m2
00:34 44.7 °F 35 °F 30.14 in Calm     68.4% 0.00 in 0 W/m2
00:39 44.6 °F 34.6 °F 30.14 in Calm     67.6% 0.00 in 0 W/m2
00:44 44.5 °F 35 °F 30.14 in Calm     69% 0.00 in 0 W/m2
00:49 44.5 °F 35 °F 30.14 in Calm     69% 0.00 in 0 W/m2
00:54 44.4 °F 34.5 °F 30.14 in Calm     68.1% 0.00 in 0 W/m2
00:59 44.3 °F 34.5 °F 30.14 in Calm     68.1% 0.00 in 0 W/m2
01:04 44.2 °F 34.8 °F 30.14 in Calm     69.2% 0.00 in 0 W/m2
01:09 44.1 °F 34.9 °F 30.14 in Calm     70% 0.00 in 0 W/m2
01:14 43.9 °F 34.7 °F 30.15 in Calm     70% 0.00 in 0 W/m2
01:19 43.7 °F 34.6 °F 30.15 in Calm     70.3% 0.00 in 0 W/m2
01:24 43.4 °F 34.7 °F 30.14 in Calm     71% 0.00 in 0 W/m2
01:29 43.2 °F 34.5 °F 30.15 in Calm     71% 0.00 in 0 W/m2
01:34 43.1 °F 34 °F 30.14 in Calm     70.2% 0.00 in 0 W/m2
01:39 42.9 °F 33.5 °F 30.14 in Calm     69.1% 0.00 in 0 W/m2
01:44 42.8 °F 33.4 °F 30.15 in Calm     69% 0.00 in 0 W/m2
01:49 42.8 °F 33.4 °F 30.15 in Calm     69.3% 0.00 in 0 W/m2
01:54 42.7 °F 34.2 °F 30.15 in Calm     71.7% 0.00 in 0 W/m2
01:59 42.5 °F 34.1 °F 30.14 in Calm     72% 0.00 in 0 W/m2
02:04 42.3 °F 34.4 °F 30.14 in Calm     73.4% 0.00 in 0 W/m2
02:09 42.1 °F 34.5 °F 30.14 in Calm     74.2% 0.00 in 0 W/m2
02:14 41.9 °F 34.5 °F 30.14 in Calm     74.8% 0.00 in 0 W/m2
02:19 41.7 °F 33.9 °F 30.14 in Calm     73.6% 0.00 in 0 W/m2
02:24 41.5 °F 33.8 °F 30.14 in Calm     74% 0.00 in 0 W/m2
02:29 41.3 °F 34.3 °F 30.14 in Calm     75.8% 0.00 in 0 W/m2
02:34 41 °F 34.5 °F 30.14 in Calm     77.5% 0.00 in 0 W/m2
02:39 40.7 °F 34.1 °F 30.14 in Calm     77% 0.00 in 0 W/m2
02:44 40.4 °F 34 °F 30.15 in Calm     77.8% 0.00 in 0 W/m2
02:49 40.1 °F 34.1 °F 30.15 in Calm     79% 0.00 in 0 W/m2
02:54 39.7 °F 33.8 °F 30.15 in Calm     79% 0.00 in 0 W/m2
02:59 39.5 °F 33.6 °F 30.15 in Calm     79.2% 0.00 in 0 W/m2
03:04 39.2 °F 33.7 °F 30.15 in Calm     80.3% 0.00 in 0 W/m2
03:09 38.9 °F 33.7 °F 30.15 in Calm     81.3% 0.00 in 0 W/m2
03:14 38.6 °F 33.7 °F 30.15 in Calm     82.3% 0.00 in 0 W/m2
03:19 38.4 °F 33.8 °F 30.15 in Calm     83.2% 0.00 in 0 W/m2
03:24 38.3 °F 34 °F 30.15 in Calm     84.4% 0.00 in 0 W/m2
03:29 38.3 °F 34.2 °F 30.15 in Calm     85% 0.00 in 0 W/m2
03:34 38.2 °F 34.1 °F 30.15 in Calm     85% 0.00 in 0 W/m2
03:39 38.1 °F 34 °F 30.15 in Calm     85% 0.00 in 0 W/m2
03:44 38.1 °F 34 °F 30.15 in Calm     85% 0.00 in 0 W/m2
03:49 38 °F 33.9 °F 30.15 in Calm     85% 0.00 in 0 W/m2
03:54 38 °F 33.9 °F 30.15 in Calm     85% 0.00 in 0 W/m2
03:59 37.9 °F 33.9 °F 30.15 in Calm     85.2% 0.00 in 0 W/m2
04:00 37.9 °F 34.1 °F 30.15 in Calm     86% 0.00 in 0 W/m2
04:09 37.7 °F 33.9 °F 30.16 in Calm   1 mph 86% 0.00 in 0 W/m2
04:14 37.7 °F 33.9 °F 30.16 in NW 0.1 mph 2 mph 86% 0.00 in 0 W/m2
04:19 37.5 °F 33.7 °F 30.16 in Calm   2 mph 86% 0.00 in 0 W/m2
04:24 37.3 °F 33.5 °F 30.15 in Calm   2 mph 86% 0.00 in 0 W/m2
04:29 37.2 °F 33.4 °F 30.15 in Calm   2 mph 86% 0.00 in 0 W/m2
04:34 37.1 °F 33.3 °F 30.15 in Calm   2 mph 86% 0.00 in 0 W/m2
04:39 37 °F 33.2 °F 30.16 in Calm     86% 0.00 in 0 W/m2
04:44 37 °F 33.2 °F 30.16 in Calm     86% 0.00 in 0 W/m2
04:49 36.9 °F 33.1 °F 30.16 in Calm     86% 0.00 in 0 W/m2
04:54 36.9 °F 33.1 °F 30.16 in Calm     86% 0.00 in 0 W/m2
04:59 36.9 °F 33.1 °F 30.16 in Calm     86% 0.00 in 0 W/m2
05:04 36.8 °F 33 °F 30.16 in Calm     86% 0.00 in 0 W/m2
05:09 36.7 °F 32.9 °F 30.16 in Calm     86% 0.00 in 0 W/m2
05:14 36.7 °F 33.1 °F 30.16 in Calm     86.9% 0.00 in 0 W/m2
05:19 36.6 °F 33.1 °F 30.16 in Calm     87% 0.00 in 0 W/m2
05:24 36.6 °F 33.1 °F 30.16 in Calm     87% 0.00 in 0 W/m2
05:29 36.6 °F 33.1 °F 30.16 in Calm     87% 0.00 in 0 W/m2
05:34 36.6 °F 33.1 °F 30.16 in Calm     87% 0.00 in 0 W/m2
05:39 36.6 °F 33.1 °F 30.16 in Calm     87% 0.00 in 0 W/m2
05:44 36.6 °F 33.1 °F 30.16 in Calm     87% 0.00 in 0 W/m2
05:49 36.5 °F 33 °F 30.16 in Calm     87% 0.00 in 0 W/m2
05:54 36.4 °F 32.9 °F 30.16 in Calm     87% 0.00 in 0 W/m2
05:59 36.3 °F 32.8 °F 30.16 in Calm     87% 0.00 in 0 W/m2
06:04 36.2 °F 32.7 °F 30.16 in Calm     87% 0.00 in 0 W/m2
06:09 36.1 °F 32.6 °F 30.16 in Calm     87% 0.00 in 0 W/m2
06:14 36.1 °F 32.6 °F 30.16 in Calm     87% 0.00 in 0 W/m2
06:19 36.1 °F 32.4 °F 30.16 in Calm     86.1% 0.00 in 0 W/m2
06:24 36.1 °F 32.4 °F 30.16 in Calm     86.4% 0.00 in 0 W/m2
06:29 36.1 °F 32.6 °F 30.16 in Calm     87% 0.00 in 0 W/m2
06:34 36.1 °F 32.6 °F 30.16 in Calm     87% 0.00 in 0 W/m2
06:39 36 °F 32.5 °F 30.16 in Calm     87% 0.00 in 0 W/m2
06:44 35.9 °F 32.5 °F 30.16 in Calm     87.2% 0.00 in 0 W/m2
06:49 35.8 °F 32.2 °F 30.16 in Calm     86.5% 0.00 in 0 W/m2
06:54 35.8 °F 32.3 °F 30.16 in Calm     87% 0.00 in 0 W/m2
06:59 35.8 °F 32.3 °F 30.16 in Calm     87% 0.00 in 0 W/m2
07:04 35.8 °F 32.3 °F 30.16 in Calm     87% 0.00 in 0 W/m2
07:09 35.7 °F 32.2 °F 30.16 in Calm     87% 0.00 in 0 W/m2
07:14 35.6 °F 32.1 °F 30.16 in Calm     87% 0.00 in 0 W/m2
07:19 35.5 °F 32 °F 30.16 in Calm     87% 0.00 in 0 W/m2
07:24 35.4 °F 31.9 °F 30.16 in Calm     87% 0.00 in 0 W/m2
07:29 35.3 °F 32.1 °F 30.16 in Calm     88% 0.00 in 5 W/m2
07:34 35.2 °F 32 °F 30.16 in Calm     88% 0.00 in 7 W/m2
07:39 35.2 °F 32 °F 30.16 in Calm     88% 0.00 in 12 W/m2
07:44 35.2 °F 32 °F 30.16 in Calm     88% 0.00 in 14 W/m2
07:49 35.2 °F 32.2 °F 30.16 in Calm     88.4% 0.00 in 16 W/m2
07:54 35.4 °F 32.5 °F 30.16 in Calm     89% 0.00 in 21 W/m2
07:59 35.6 °F 32.7 °F 30.17 in Calm     89% 0.00 in 21 W/m2
08:00 35.7 °F 32.8 °F 30.17 in Calm     89% 0.00 in 19 W/m2
08:09 36.1 °F 33 °F 30.17 in Calm     88.3% 0.00 in 49 W/m2
08:14 36.4 °F 33.2 °F 30.17 in Calm     88% 0.00 in 51 W/m2
08:19 36.8 °F 33.3 °F 30.17 in Calm     87.2% 0.00 in 37 W/m2
08:24 37.1 °F 33.5 °F 30.18 in Calm     86.8% 0.00 in 76 W/m2
08:29 37.4 °F 33.6 °F 30.18 in Calm     86.2% 0.00 in 40 W/m2
08:34 37.7 °F 33.9 °F 30.18 in Calm     86% 0.00 in 56 W/m2
08:39 38.1 °F 34.1 °F 30.18 in Calm     85.3% 0.00 in 56 W/m2
08:44 38.4 °F 34.3 °F 30.18 in Calm     85% 0.00 in 76 W/m2
08:49 38.8 °F 34.6 °F 30.19 in Calm     84.8% 0.00 in 79 W/m2
08:54 39.1 °F 34.7 °F 30.19 in WNW 1 mph 6 mph 83.9% 0.00 in 148 W/m2
08:59 39.7 °F 34.8 °F 30.19 in WNW 0.9 mph 6 mph 82.6% 0.00 in 218 W/m2
09:04 40.5 °F 35.2 °F 30.19 in WNW 0.9 mph 6 mph 81.3% 0.00 in 285 W/m2
09:09 41.6 °F 35.5 °F 30.19 in WNW 1.3 mph 7 mph 78.9% 0.00 in 297 W/m2
09:14 42.8 °F 35.8 °F 30.19 in WNW 2.3 mph 7 mph 76.2% 0.00 in 309 W/m2
09:19 43.9 °F 35.8 °F 30.19 in WNW 1.6 mph 9 mph 73% 0.00 in 325 W/m2
09:24 44.9 °F 36.1 °F 30.19 in West 1.1 mph 9 mph 71.1% 0.00 in 339 W/m2
09:29 45.7 °F 36.2 °F 30.19 in WNW 1.3 mph 9 mph 69.2% 0.00 in 353 W/m2
09:34 46.5 °F 36.4 °F 30.19 in WNW 1.1 mph 9 mph 67.9% 0.00 in 366 W/m2
09:39 47.1 °F 36.3 °F 30.19 in NW 3 mph 7 mph 66.1% 0.00 in 378 W/m2
09:44 47.5 °F 36.3 °F 30.20 in WNW 2.4 mph 11 mph 64.8% 0.00 in 388 W/m2
09:49 48 °F 36.8 °F 30.19 in WNW 0.8 mph 11 mph 65% 0.00 in 399 W/m2
09:54 48.6 °F 37.1 °F 30.19 in WNW 1.5 mph 11 mph 64.3% 0.00 in 406 W/m2
09:59 49.2 °F 36.7 °F 30.20 in WNW 2.2 mph 11 mph 62.1% 0.00 in 417 W/m2
10:04 49.5 °F 36.7 °F 30.20 in WNW 2 mph 11 mph 61.1% 0.00 in 429 W/m2
10:09 49.9 °F 36.8 °F 30.19 in WNW 2.4 mph 9 mph 60.4% 0.00 in 439 W/m2
10:14 50.1 °F 36.1 °F 30.20 in WNW 3.3 mph 10 mph 58.3% 0.00 in 446 W/m2
10:19 50.1 °F 36 °F 30.20 in WNW 2.6 mph 10 mph 58.1% 0.00 in 436 W/m2
10:24 49.8 °F 35.5 °F 30.20 in NW 2.2 mph 11 mph 57.8% 0.00 in 153 W/m2
10:29 49.5 °F 35.7 °F 30.20 in NW 1.4 mph 11 mph 58.9% 0.00 in 476 W/m2
10:34 49.4 °F 35.5 °F 30.20 in WNW 3.7 mph 12 mph 58.6% 0.00 in 490 W/m2
10:39 49.4 °F 35.5 °F 30.19 in WNW 1.5 mph 12 mph 58.5% 0.00 in 499 W/m2
10:44 49.5 °F 35.6 °F 30.19 in West 0.8 mph 12 mph 58.5% 0.00 in 503 W/m2
10:49 49.7 °F 35.6 °F 30.19 in WNW 2.1 mph 12 mph 58.1% 0.00 in 515 W/m2
10:54 50 °F 35.8 °F 30.20 in NW 0.6 mph 12 mph 58% 0.00 in 517 W/m2
10:59 50.3 °F 35.7 °F 30.20 in NW 3.1 mph 12 mph 57.2% 0.00 in 432 W/m2
11:04 50.3 °F 34.6 °F 30.20 in WNW 5.3 mph 14 mph 54.7% 0.00 in 538 W/m2
11:09 50.1 °F 34.8 °F 30.19 in WNW 1.6 mph 14 mph 55.4% 0.00 in 543 W/m2
11:14 50.5 °F 35.1 °F 30.20 in WNW 6 mph 14 mph 55.3% 0.00 in 552 W/m2
11:19 50.8 °F 34.3 °F 30.20 in WNW 3.1 mph 14 mph 53% 0.00 in 557 W/m2
11:24 51.1 °F 34.8 °F 30.20 in NW 2.8 mph 14 mph 53.5% 0.00 in 561 W/m2
11:29 51.5 °F 35.2 °F 30.20 in WNW 3.2 mph 14 mph 53.5% 0.00 in 568 W/m2
11:34 51.8 °F 35 °F 30.20 in NW 3.5 mph 14 mph 52.5% 0.00 in 577 W/m2
11:39 52.2 °F 35.4 °F 30.20 in NW 2.3 mph 13 mph 52.6% 0.00 in 582 W/m2
11:44 52.6 °F 35.5 °F 30.19 in NW 2.4 mph 13 mph 52% 0.00 in 552 W/m2
11:49 53 °F 35.6 °F 30.19 in WNW 2.8 mph 14 mph 51.5% 0.00 in 543 W/m2
11:54 53 °F 34.3 °F 30.19 in WNW 4.4 mph 16 mph 48.9% 0.00 in 543 W/m2
11:59 52.5 °F 34 °F 30.19 in WNW 3.2 mph 16 mph 49.1% 0.00 in 181 W/m2
12:09 51.8 °F 34.3 °F 30.19 in WNW 1.5 mph 11 mph 51% 0.00 in 202 W/m2
12:14 51.8 °F 33.7 °F 30.18 in West 2.9 mph 12 mph 49.8% 0.00 in 381 W/m2
12:19 51.9 °F 33.8 °F 30.19 in West 2.1 mph 12 mph 49.9% 0.00 in 381 W/m2
12:24 52.1 °F 33.6 °F 30.19 in NW 1.7 mph 12 mph 49.3% 0.00 in 151 W/m2
12:29 52.2 °F 33.6 °F 30.18 in NW 2 mph 12 mph 48.9% 0.00 in 283 W/m2
12:34 52.3 °F 33.2 °F 30.18 in NW 4.8 mph 12 mph 47.9% 0.00 in 127 W/m2
12:39 52.4 °F 32.9 °F 30.18 in WNW 1.6 mph 12 mph 47.2% 0.00 in 209 W/m2
12:44 52.6 °F 33.2 °F 30.18 in NW 2 mph 12 mph 47.4% 0.00 in 339 W/m2
12:49 52.8 °F 32.5 °F 30.18 in NW 3.9 mph 13 mph 45.8% 0.00 in 190 W/m2
12:54 52.6 °F 31.3 °F 30.17 in NW 4.2 mph 13 mph 43.9% 0.00 in 172 W/m2
12:59 52.2 °F 31 °F 30.17 in WNW 4 mph 13 mph 44.1% 0.00 in 306 W/m2
13:04 52 °F 31 °F 30.17 in NW 4.6 mph 13 mph 44.4% 0.00 in 547 W/m2
13:09 52 °F 31 °F 30.17 in NW 1.6 mph 11 mph 44.4% 0.00 in 455 W/m2
13:14 52.2 °F 31.8 °F 30.17 in WNW 3 mph 11 mph 45.5% 0.00 in 385 W/m2
13:19 52.4 °F 32.2 °F 30.16 in WNW 2.4 mph 13 mph 45.8% 0.00 in 422 W/m2
13:24 52.7 °F 32.1 °F 30.16 in NNW 1.2 mph 13 mph 45.2% 0.00 in 517 W/m2
13:29 53.1 °F 32.3 °F 30.16 in WNW 4 mph 13 mph 44.9% 0.00 in 594 W/m2
13:34 53.4 °F 31.6 °F 30.16 in NW 4 mph 14 mph 43.1% 0.00 in 527 W/m2
13:39 53.3 °F 31.4 °F 30.16 in NW 4.5 mph 14 mph 43% 0.00 in 83 W/m2
13:44 53.2 °F 32.2 °F 30.16 in NW 2.3 mph 14 mph 44.5% 0.00 in 309 W/m2
13:49 53.2 °F 32.2 °F 30.15 in NW 2.8 mph 14 mph 44.5% 0.00 in 334 W/m2
13:54 53.2 °F 31.8 °F 30.15 in WNW 3.5 mph 14 mph 43.9% 0.00 in 506 W/m2
13:59 53.3 °F 31.7 °F 30.15 in NW 3.7 mph 14 mph 43.6% 0.00 in 534 W/m2
14:04 53.3 °F 31.8 °F 30.15 in NW 4.2 mph 15 mph 43.7% 0.00 in 70 W/m2
14:09 53.2 °F 31.8 °F 30.15 in NW 5.2 mph 15 mph 44% 0.00 in 269 W/m2
14:14 52.9 °F 32.2 °F 30.15 in NW 2.6 mph 15 mph 45% 0.00 in 221 W/m2
14:19 52.9 °F 32 °F 30.15 in NW 4.8 mph 15 mph 44.8% 0.00 in 221 W/m2
14:24 52.7 °F 31.9 °F 30.15 in NW 2.7 mph 15 mph 44.8% 0.00 in 243 W/m2
14:29 52.6 °F 32 °F 30.15 in NW 1.6 mph 15 mph 45.3% 0.00 in 359 W/m2
14:34 52.8 °F 32.6 °F 30.15 in West 1.6 mph 15 mph 46% 0.00 in 487 W/m2
14:39 53.1 °F 32.1 °F 30.15 in WNW 3.9 mph 9 mph 44.6% 0.00 in 478 W/m2
14:44 53.1 °F 31.8 °F 30.16 in WNW 2.3 mph 10 mph 44% 0.00 in 160 W/m2
14:49 52.9 °F 31.1 °F 30.16 in WNW 2.8 mph 10 mph 43.1% 0.00 in 148 W/m2
14:54 52.8 °F 30.8 °F 30.16 in NW 3.2 mph 10 mph 42.8% 0.00 in 116 W/m2
14:59 52.7 °F 31.4 °F 30.16 in NNW 1.6 mph 10 mph 44% 0.00 in 114 W/m2
15:04 52.7 °F 31.1 °F 30.16 in WNW 4.1 mph 14 mph 43.4% 0.00 in 40 W/m2
15:09 52.4 °F 31.1 °F 30.16 in NW 0.4 mph 14 mph 43.8% 0.00 in 58 W/m2
15:14 52.1 °F 31.6 °F 30.16 in WNW 2.2 mph 14 mph 45.4% 0.00 in 33 W/m2
15:19 51.6 °F 30.9 °F 30.16 in WNW 2.1 mph 14 mph 45% 0.00 in 320 W/m2
15:24 51.2 °F 30.5 °F 30.16 in WNW 3.8 mph 14 mph 44.7% 0.00 in 320 W/m2
15:29 51 °F 30.3 °F 30.16 in WNW 2.1 mph 14 mph 44.8% 0.00 in 30 W/m2
15:34 50.8 °F 30.5 °F 30.16 in WNW 2.5 mph 14 mph 45.5% 0.00 in 40 W/m2
15:39 50.7 °F 31.3 °F 30.16 in West 1.9 mph 10 mph 47.1% 0.00 in 37 W/m2
15:44 50.8 °F 30.8 °F 30.16 in WNW 2.7 mph 10 mph 46.1% 0.00 in 39 W/m2
15:49 50.9 °F 30.9 °F 30.16 in West 2.1 mph 10 mph 46% 0.00 in 42 W/m2
15:54 51.1 °F 30.7 °F 30.16 in West 1.8 mph 10 mph 45.3% 0.00 in 58 W/m2
15:59 51.3 °F 30.9 °F 30.16 in WNW 0.6 mph 10 mph 45.4% 0.00 in 58 W/m2
16:00 51.3 °F 31.2 °F 30.16 in Calm   10 mph 46% 0.00 in 40 W/m2
16:09 51.4 °F 31.2 °F 30.16 in WNW 1.7 mph 9 mph 45.9% 0.00 in 51 W/m2
16:14 51.4 °F 31.4 °F 30.16 in WSW 1.6 mph 9 mph 46% 0.00 in 72 W/m2
16:19 51.5 °F 31.3 °F 30.16 in SW 0.8 mph 9 mph 45.8% 0.00 in 72 W/m2
16:24 51.6 °F 31.4 °F 30.16 in SW 0.4 mph 9 mph 45.8% 0.00 in 70 W/m2
16:29 51.7 °F 31.6 °F 30.16 in WNW 2.5 mph 9 mph 46% 0.00 in 63 W/m2
16:34 51.7 °F 30.9 °F 30.17 in WNW 1.2 mph 9 mph 44.8% 0.00 in 46 W/m2
16:39 51.6 °F 30.8 °F 30.17 in WNW 2.8 mph 11 mph 44.7% 0.00 in 30 W/m2
16:44 51.4 °F 30.3 °F 30.17 in WNW 2.8 mph 11 mph 44.2% 0.00 in 23 W/m2
16:49 51.1 °F 30.8 °F 30.17 in NW 1.3 mph 11 mph 45.6% 0.00 in 19 W/m2
16:54 50.8 °F 30.7 °F 30.17 in WNW 1.4 mph 11 mph 46% 0.00 in 19 W/m2
16:59 50.5 °F 30.5 °F 30.17 in NW 1.8 mph 11 mph 46% 0.00 in 18 W/m2
17:04 50.4 °F 30.7 °F 30.17 in NW 0.3 mph 11 mph 46.5% 0.00 in 16 W/m2
17:09 50.2 °F 31 °F 30.17 in WNW 2.1 mph 11 mph 47.4% 0.00 in 14 W/m2
17:14 50 °F 30.9 °F 30.17 in NW 1.2 mph 11 mph 47.7% 0.00 in 12 W/m2
17:19 49.8 °F 30.9 °F 30.18 in NW 1.5 mph 11 mph 48% 0.00 in 14 W/m2
17:24 49.6 °F 31.2 °F 30.18 in Calm   11 mph 49.1% 0.00 in 14 W/m2
17:29 49.4 °F 31.5 °F 30.18 in Calm   11 mph 50% 0.00 in 14 W/m2
17:34 49.2 °F 31.5 °F 30.18 in NW 0.2 mph 11 mph 50.2% 0.00 in 9 W/m2
17:39 49 °F 31.7 °F 30.19 in NW 0.2 mph 2 mph 51% 0.00 in 5 W/m2
17:44 48.8 °F 31.9 °F 30.19 in NW 0.1 mph 2 mph 51.8% 0.00 in 0 W/m2
17:49 48.5 °F 31.6 °F 30.19 in NW 0.6 mph 4 mph 51.8% 0.00 in 0 W/m2
17:54 48.2 °F 31.5 °F 30.19 in Calm   4 mph 52.2% 0.00 in 0 W/m2
17:59 48 °F 31.7 °F 30.19 in NW 0.1 mph 4 mph 53% 0.00 in 0 W/m2
18:04 47.7 °F 31.5 °F 30.19 in Calm   4 mph 53% 0.00 in 0 W/m2
18:09 47.5 °F 31.3 °F 30.20 in Calm   1 mph 53.2% 0.00 in 0 W/m2
18:14 47.3 °F 31.5 °F 30.20 in Calm   1 mph 54% 0.00 in 0 W/m2
18:19 47 °F 31.3 °F 30.20 in Calm   1 mph 54.2% 0.00 in 0 W/m2
18:24 46.7 °F 31.4 °F 30.20 in Calm   1 mph 55% 0.00 in 0 W/m2
18:29 46.5 °F 31.4 °F 30.20 in Calm   1 mph 55.4% 0.00 in 0 W/m2
18:34 46.2 °F 31.4 °F 30.21 in Calm   1 mph 56% 0.00 in 0 W/m2
18:39 46 °F 31.6 °F 30.21 in Calm   1 mph 57% 0.00 in 0 W/m2
18:44 45.7 °F 31.8 °F 30.21 in Calm   1 mph 58% 0.00 in 0 W/m2
18:49 45.4 °F 32 °F 30.21 in Calm   1 mph 59.2% 0.00 in 0 W/m2
18:54 45.1 °F 32 °F 30.22 in Calm   1 mph 59.8% 0.00 in 0 W/m2
18:59 44.8 °F 31.9 °F 30.21 in Calm   1 mph 60.3% 0.00 in 0 W/m2
19:04 44.5 °F 31.9 °F 30.22 in Calm   1 mph 61% 0.00 in 0 W/m2
19:09 44.2 °F 31.8 °F 30.22 in Calm     61.4% 0.00 in 0 W/m2
19:14 44 °F 32 °F 30.22 in Calm     62.5% 0.00 in 0 W/m2
19:19 43.7 °F 31.9 °F 30.22 in Calm     63% 0.00 in 0 W/m2
19:24 43.5 °F 32 °F 30.22 in Calm   3 mph 63.7% 0.00 in 0 W/m2
19:29 43.2 °F 31.9 °F 30.23 in NW 0.1 mph 3 mph 64% 0.00 in 0 W/m2
19:34 43 °F 31.7 °F 30.23 in Calm   3 mph 64% 0.00 in 0 W/m2
19:39 42.9 °F 31.5 °F 30.23 in Calm     64% 0.00 in 0 W/m2
19:44 42.8 °F 31.7 °F 30.23 in Calm     64.6% 0.00 in 0 W/m2
19:49 42.7 °F 31.7 °F 30.23 in Calm     65% 0.00 in 0 W/m2
19:54 42.5 °F 31.6 °F 30.24 in Calm     65% 0.00 in 0 W/m2
19:59 42.4 °F 31.5 °F 30.24 in Calm     65% 0.00 in 0 W/m2
20:00 42.3 °F 31.4 °F 30.24 in Calm     65% 0.00 in 0 W/m2
20:09 42.1 °F 31.2 °F 30.24 in Calm     65% 0.00 in 0 W/m2
20:14 42 °F 31.1 °F 30.24 in Calm     65% 0.00 in 0 W/m2
20:19 41.9 °F 30.9 °F 30.24 in Calm     64.7% 0.00 in 0 W/m2
20:24 41.8 °F 30.5 °F 30.24 in Calm     64% 0.00 in 0 W/m2
20:29 41.8 °F 30.9 °F 30.24 in Calm     65.2% 0.00 in 0 W/m2
20:34 41.6 °F 31.1 °F 30.25 in Calm     66% 0.00 in 0 W/m2
20:39 41.5 °F 31 °F 30.24 in Calm     66% 0.00 in 0 W/m2
20:44 41.4 °F 31.3 °F 30.24 in Calm     67.1% 0.00 in 0 W/m2
20:49 41.2 °F 31.7 °F 30.25 in Calm     68.8% 0.00 in 0 W/m2
20:54 41 °F 31.3 °F 30.25 in Calm     68.2% 0.00 in 0 W/m2
20:59 40.8 °F 31.1 °F 30.25 in Calm     68% 0.00 in 0 W/m2
21:04 40.7 °F 30.9 °F 30.25 in Calm     68% 0.00 in 0 W/m2
21:09 40.5 °F 30.8 °F 30.25 in Calm     68% 0.00 in 0 W/m2
21:14 40.4 °F 31 °F 30.25 in Calm     68.8% 0.00 in 0 W/m2
21:19 40.2 °F 31.6 °F 30.25 in Calm     70.9% 0.00 in 0 W/m2
21:24 40.1 °F 31.8 °F 30.25 in Calm     72% 0.00 in 0 W/m2
21:29 39.9 °F 31.3 °F 30.25 in NW 0.2 mph 2 mph 71.1% 0.00 in 0 W/m2
21:34 39.8 °F 31.2 °F 30.26 in Calm   2 mph 71% 0.00 in 0 W/m2
21:39 39.9 °F 31.2 °F 30.26 in Calm     71% 0.00 in 0 W/m2
21:44 39.9 °F 31.3 °F 30.26 in Calm     71% 0.00 in 0 W/m2
21:49 40 °F 31.6 °F 30.26 in Calm     71.7% 0.00 in 0 W/m2
21:54 40 °F 31.6 °F 30.26 in Calm     71.7% 0.00 in 0 W/m2
21:59 39.9 °F 31.3 °F 30.26 in Calm     71.2% 0.00 in 0 W/m2
22:04 39.9 °F 31.2 °F 30.26 in Calm     71% 0.00 in 0 W/m2
22:09 39.9 °F 31.3 °F 30.27 in NW 0.1 mph 2 mph 71% 0.00 in 0 W/m2
22:14 40 °F 31.4 °F 30.27 in NW 0.2 mph 3 mph 71.2% 0.00 in 0 W/m2
22:19 40 °F 31.7 °F 30.27 in NW 1 mph 5 mph 71.9% 0.00 in 0 W/m2
22:24 40.2 °F 31.7 °F 30.27 in NW 0.5 mph 5 mph 71.5% 0.00 in 0 W/m2
22:29 40.2 °F 31.9 °F 30.27 in NW 0.7 mph 6 mph 72% 0.00 in 0 W/m2
22:34 40.3 °F 31.7 °F 30.27 in NW 0.8 mph 6 mph 71.2% 0.00 in 0 W/m2
22:39 40.4 °F 31.8 °F 30.27 in NW 0.2 mph 3 mph 71% 0.00 in 0 W/m2
22:44 40.5 °F 31.8 °F 30.27 in NW 0.4 mph 4 mph 71% 0.00 in 0 W/m2
22:49 40.6 °F 31.9 °F 30.28 in NNE 0.3 mph 4 mph 71% 0.00 in 0 W/m2
22:54 40.7 °F 32 °F 30.28 in Calm   4 mph 71% 0.00 in 0 W/m2
22:59 40.6 °F 32 °F 30.28 in Calm   4 mph 71% 0.00 in 0 W/m2
23:04 40.6 °F 31.9 °F 30.28 in Calm   4 mph 71% 0.00 in 0 W/m2
23:09 40.4 °F 31.9 °F 30.28 in North 0.5 mph 4 mph 71.2% 0.00 in 0 W/m2
23:14 40.3 °F 32.1 °F 30.28 in North 0.1 mph 4 mph 72.1% 0.00 in 0 W/m2
23:19 40.3 °F 32.2 °F 30.28 in NNW 1.1 mph 5 mph 72.7% 0.00 in 0 W/m2
23:24 40.4 °F 32.4 °F 30.28 in NNW 0.4 mph 7 mph 73% 0.00 in 0 W/m2
23:29 40.4 °F 32.4 °F 30.28 in NNW 0.2 mph 7 mph 73% 0.00 in 0 W/m2
23:34 40.4 °F 32.5 °F 30.29 in NNW 0.6 mph 7 mph 73% 0.00 in 0 W/m2
23:39 40.5 °F 32.6 °F 30.29 in NW 1 mph 4 mph 73% 0.00 in 0 W/m2
23:44 40.6 °F 32.6 °F 30.29 in NW 0.3 mph 4 mph 73% 0.00 in 0 W/m2
23:45 40.6 °F 32.6 °F 30.29 in Calm   4 mph 73% 0.00 in 0 W/m2
Hartford County Weather
Compliments of Weather Underground - 2 mb